sensor_id;sensor_type;location;lat;lon;timestamp;P1;durP1;ratioP1;P2;durP2;ratioP2
49826;SDS011;35715;51.570;6.036;2022-10-16T00:10:28;7.75;;;3.20;;
49826;SDS011;35715;51.570;6.036;2022-10-16T00:34:12;3.28;;;2.90;;
49826;SDS011;35715;51.570;6.036;2022-10-16T00:41:50;3.03;;;2.42;;
49826;SDS011;35715;51.570;6.036;2022-10-16T01:06:05;3.03;;;2.83;;
49826;SDS011;35715;51.570;6.036;2022-10-16T01:09:07;10.27;;;4.57;;
49826;SDS011;35715;51.570;6.036;2022-10-16T01:14:22;6.18;;;3.30;;
49826;SDS011;35715;51.570;6.036;2022-10-16T01:17:09;15.73;;;4.10;;
49826;SDS011;35715;51.570;6.036;2022-10-16T01:22:11;4.75;;;3.05;;
49826;SDS011;35715;51.570;6.036;2022-10-16T01:27:26;3.95;;;2.55;;
49826;SDS011;35715;51.570;6.036;2022-10-16T01:47:41;4.60;;;3.58;;
49826;SDS011;35715;51.570;6.036;2022-10-16T01:53:45;2.78;;;2.58;;
49826;SDS011;35715;51.570;6.036;2022-10-16T01:56:21;3.35;;;3.05;;
49826;SDS011;35715;51.570;6.036;2022-10-16T02:04:12;5.95;;;3.22;;
49826;SDS011;35715;51.570;6.036;2022-10-16T02:07:41;5.38;;;3.13;;
49826;SDS011;35715;51.570;6.036;2022-10-16T02:10:39;3.28;;;1.70;;
49826;SDS011;35715;51.570;6.036;2022-10-16T02:16:50;2.78;;;2.00;;
49826;SDS011;35715;51.570;6.036;2022-10-16T02:19:18;6.00;;;3.25;;
49826;SDS011;35715;51.570;6.036;2022-10-16T02:27:10;3.05;;;1.80;;
49826;SDS011;35715;51.570;6.036;2022-10-16T02:36:58;3.40;;;2.05;;
49826;SDS011;35715;51.570;6.036;2022-10-16T02:43:04;1.70;;;1.60;;
49826;SDS011;35715;51.570;6.036;2022-10-16T02:48:16;3.70;;;2.30;;
49826;SDS011;35715;51.570;6.036;2022-10-16T02:50:41;2.42;;;1.85;;
49826;SDS011;35715;51.570;6.036;2022-10-16T02:53:07;1.48;;;1.27;;
49826;SDS011;35715;51.570;6.036;2022-10-16T02:58:18;1.77;;;1.67;;
49826;SDS011;35715;51.570;6.036;2022-10-16T03:00:49;5.25;;;1.65;;
49826;SDS011;35715;51.570;6.036;2022-10-16T03:09:18;1.80;;;1.70;;
49826;SDS011;35715;51.570;6.036;2022-10-16T03:11:48;3.80;;;2.72;;
49826;SDS011;35715;51.570;6.036;2022-10-16T03:14:24;5.80;;;1.45;;
49826;SDS011;35715;51.570;6.036;2022-10-16T03:16:55;2.70;;;1.50;;
49826;SDS011;35715;51.570;6.036;2022-10-16T03:40:08;4.57;;;1.58;;
49826;SDS011;35715;51.570;6.036;2022-10-16T03:54:03;1.92;;;1.50;;
49826;SDS011;35715;51.570;6.036;2022-10-16T03:56:56;1.70;;;1.60;;
49826;SDS011;35715;51.570;6.036;2022-10-16T04:07:57;2.65;;;2.05;;
49826;SDS011;35715;51.570;6.036;2022-10-16T04:10:31;5.72;;;1.23;;
49826;SDS011;35715;51.570;6.036;2022-10-16T04:28:19;4.07;;;1.38;;
49826;SDS011;35715;51.570;6.036;2022-10-16T04:42:01;7.97;;;1.42;;
49826;SDS011;35715;51.570;6.036;2022-10-16T04:44:47;5.75;;;2.53;;
49826;SDS011;35715;51.570;6.036;2022-10-16T04:56:04;8.48;;;2.95;;
49826;SDS011;35715;51.570;6.036;2022-10-16T05:01:07;6.70;;;2.58;;
49826;SDS011;35715;51.570;6.036;2022-10-16T05:06:09;1.92;;;1.60;;
49826;SDS011;35715;51.570;6.036;2022-10-16T05:12:15;2.75;;;1.75;;
49826;SDS011;35715;51.570;6.036;2022-10-16T05:14:44;6.70;;;1.83;;
49826;SDS011;35715;51.570;6.036;2022-10-16T05:17:12;7.28;;;2.08;;
49826;SDS011;35715;51.570;6.036;2022-10-16T05:19:47;5.65;;;2.30;;
49826;SDS011;35715;51.570;6.036;2022-10-16T05:22:12;3.63;;;1.58;;
49826;SDS011;35715;51.570;6.036;2022-10-16T05:33:10;4.90;;;1.65;;
49826;SDS011;35715;51.570;6.036;2022-10-16T05:38:17;5.88;;;1.52;;
49826;SDS011;35715;51.570;6.036;2022-10-16T05:40:43;6.47;;;1.83;;
49826;SDS011;35715;51.570;6.036;2022-10-16T05:47:02;2.28;;;1.98;;
49826;SDS011;35715;51.570;6.036;2022-10-16T05:52:02;10.13;;;2.10;;
49826;SDS011;35715;51.570;6.036;2022-10-16T05:54:28;2.13;;;1.88;;
49826;SDS011;35715;51.570;6.036;2022-10-16T06:00:40;2.95;;;1.90;;
49826;SDS011;35715;51.570;6.036;2022-10-16T06:03:11;2.05;;;1.85;;
49826;SDS011;35715;51.570;6.036;2022-10-16T06:08:19;2.95;;;1.80;;
49826;SDS011;35715;51.570;6.036;2022-10-16T06:10:59;16.15;;;4.18;;
49826;SDS011;35715;51.570;6.036;2022-10-16T06:26:11;7.05;;;2.05;;
49826;SDS011;35715;51.570;6.036;2022-10-16T06:28:58;2.85;;;1.67;;
49826;SDS011;35715;51.570;6.036;2022-10-16T06:41:46;3.03;;;2.70;;
49826;SDS011;35715;51.570;6.036;2022-10-16T06:44:11;3.30;;;1.77;;
49826;SDS011;35715;51.570;6.036;2022-10-16T06:49:09;7.03;;;3.35;;
49826;SDS011;35715;51.570;6.036;2022-10-16T06:51:35;12.55;;;3.00;;
49826;SDS011;35715;51.570;6.036;2022-10-16T06:54:01;3.75;;;2.22;;
49826;SDS011;35715;51.570;6.036;2022-10-16T06:59:21;3.58;;;3.13;;
49826;SDS011;35715;51.570;6.036;2022-10-16T07:01:47;3.97;;;1.88;;
49826;SDS011;35715;51.570;6.036;2022-10-16T07:04:12;4.28;;;2.25;;
49826;SDS011;35715;51.570;6.036;2022-10-16T07:06:42;2.40;;;2.20;;
49826;SDS011;35715;51.570;6.036;2022-10-16T07:09:08;3.93;;;2.10;;
49826;SDS011;35715;51.570;6.036;2022-10-16T07:11:36;4.18;;;2.35;;
49826;SDS011;35715;51.570;6.036;2022-10-16T07:14:02;3.80;;;2.30;;
49826;SDS011;35715;51.570;6.036;2022-10-16T07:16:31;2.90;;;2.10;;
49826;SDS011;35715;51.570;6.036;2022-10-16T07:18:58;4.45;;;2.28;;
49826;SDS011;35715;51.570;6.036;2022-10-16T07:21:32;5.38;;;2.00;;
49826;SDS011;35715;51.570;6.036;2022-10-16T07:24:01;3.10;;;2.75;;
49826;SDS011;35715;51.570;6.036;2022-10-16T07:26:33;3.53;;;2.35;;
49826;SDS011;35715;51.570;6.036;2022-10-16T07:29:00;11.45;;;3.08;;
49826;SDS011;35715;51.570;6.036;2022-10-16T07:31:26;2.72;;;2.53;;
49826;SDS011;35715;51.570;6.036;2022-10-16T07:33:52;7.07;;;2.80;;
49826;SDS011;35715;51.570;6.036;2022-10-16T07:39:16;7.80;;;2.90;;
49826;SDS011;35715;51.570;6.036;2022-10-16T07:41:42;5.80;;;3.08;;
49826;SDS011;35715;51.570;6.036;2022-10-16T07:44:07;5.47;;;2.45;;
49826;SDS011;35715;51.570;6.036;2022-10-16T07:46:33;4.35;;;2.50;;
49826;SDS011;35715;51.570;6.036;2022-10-16T07:49:00;5.72;;;2.53;;
49826;SDS011;35715;51.570;6.036;2022-10-16T07:51:27;5.65;;;2.92;;
49826;SDS011;35715;51.570;6.036;2022-10-16T07:53:52;5.70;;;2.17;;
49826;SDS011;35715;51.570;6.036;2022-10-16T07:58:47;5.50;;;2.42;;
49826;SDS011;35715;51.570;6.036;2022-10-16T08:01:15;8.93;;;2.92;;
49826;SDS011;35715;51.570;6.036;2022-10-16T08:03:42;2.15;;;2.00;;
49826;SDS011;35715;51.570;6.036;2022-10-16T08:08:47;9.02;;;2.17;;
49826;SDS011;35715;51.570;6.036;2022-10-16T08:11:13;5.63;;;2.67;;
49826;SDS011;35715;51.570;6.036;2022-10-16T08:13:39;4.38;;;2.45;;
49826;SDS011;35715;51.570;6.036;2022-10-16T08:16:19;4.65;;;2.05;;
49826;SDS011;35715;51.570;6.036;2022-10-16T08:18:45;4.23;;;1.83;;
49826;SDS011;35715;51.570;6.036;2022-10-16T08:21:15;5.43;;;2.70;;
49826;SDS011;35715;51.570;6.036;2022-10-16T08:23:42;4.38;;;1.65;;
49826;SDS011;35715;51.570;6.036;2022-10-16T08:26:23;3.83;;;3.00;;
49826;SDS011;35715;51.570;6.036;2022-10-16T08:31:16;3.72;;;1.60;;
49826;SDS011;35715;51.570;6.036;2022-10-16T08:33:42;6.65;;;2.30;;
49826;SDS011;35715;51.570;6.036;2022-10-16T08:36:11;4.80;;;2.25;;
49826;SDS011;35715;51.570;6.036;2022-10-16T08:38:37;5.32;;;2.47;;
49826;SDS011;35715;51.570;6.036;2022-10-16T08:41:14;2.10;;;1.33;;
49826;SDS011;35715;51.570;6.036;2022-10-16T08:46:50;3.67;;;1.67;;
49826;SDS011;35715;51.570;6.036;2022-10-16T08:49:30;10.50;;;2.50;;
49826;SDS011;35715;51.570;6.036;2022-10-16T08:51:56;2.65;;;1.50;;
49826;SDS011;35715;51.570;6.036;2022-10-16T08:54:32;4.60;;;1.85;;
49826;SDS011;35715;51.570;6.036;2022-10-16T08:57:21;2.80;;;1.90;;
49826;SDS011;35715;51.570;6.036;2022-10-16T08:59:51;5.85;;;2.03;;
49826;SDS011;35715;51.570;6.036;2022-10-16T09:02:36;3.15;;;1.63;;
49826;SDS011;35715;51.570;6.036;2022-10-16T09:13:34;2.08;;;1.40;;
49826;SDS011;35715;51.570;6.036;2022-10-16T09:16:18;5.03;;;2.58;;
49826;SDS011;35715;51.570;6.036;2022-10-16T09:18:50;4.53;;;1.60;;
49826;SDS011;35715;51.570;6.036;2022-10-16T09:21:23;5.35;;;2.47;;
49826;SDS011;35715;51.570;6.036;2022-10-16T09:23:51;2.83;;;1.53;;
49826;SDS011;35715;51.570;6.036;2022-10-16T09:26:21;6.50;;;2.03;;
49826;SDS011;35715;51.570;6.036;2022-10-16T09:28:51;5.93;;;1.85;;
49826;SDS011;35715;51.570;6.036;2022-10-16T09:31:19;10.85;;;2.40;;
49826;SDS011;35715;51.570;6.036;2022-10-16T09:33:48;3.53;;;2.10;;
49826;SDS011;35715;51.570;6.036;2022-10-16T09:39:49;9.93;;;2.00;;
49826;SDS011;35715;51.570;6.036;2022-10-16T09:42:27;6.57;;;1.67;;
49826;SDS011;35715;51.570;6.036;2022-10-16T09:45:00;3.90;;;2.13;;
49826;SDS011;35715;51.570;6.036;2022-10-16T09:47:27;2.65;;;1.33;;
49826;SDS011;35715;51.570;6.036;2022-10-16T09:49:57;2.60;;;1.70;;
49826;SDS011;35715;51.570;6.036;2022-10-16T09:52:27;6.13;;;1.33;;
49826;SDS011;35715;51.570;6.036;2022-10-16T09:54:57;5.47;;;1.23;;
49826;SDS011;35715;51.570;6.036;2022-10-16T09:57:33;3.50;;;1.40;;
49826;SDS011;35715;51.570;6.036;2022-10-16T09:59:58;7.07;;;2.67;;
49826;SDS011;35715;51.570;6.036;2022-10-16T10:02:28;7.35;;;2.85;;
49826;SDS011;35715;51.570;6.036;2022-10-16T10:04:55;2.90;;;2.17;;
49826;SDS011;35715;51.570;6.036;2022-10-16T10:10:05;3.90;;;2.03;;
49826;SDS011;35715;51.570;6.036;2022-10-16T10:12:31;9.18;;;2.15;;
49826;SDS011;35715;51.570;6.036;2022-10-16T10:15:21;4.82;;;1.25;;
49826;SDS011;35715;51.570;6.036;2022-10-16T10:17:50;5.72;;;2.05;;
49826;SDS011;35715;51.570;6.036;2022-10-16T10:22:59;2.13;;;1.05;;
49826;SDS011;35715;51.570;6.036;2022-10-16T10:28:43;4.45;;;1.13;;
49826;SDS011;35715;51.570;6.036;2022-10-16T10:31:18;5.82;;;1.95;;
49826;SDS011;35715;51.570;6.036;2022-10-16T10:33:58;4.57;;;1.50;;
49826;SDS011;35715;51.570;6.036;2022-10-16T10:36:32;6.47;;;2.00;;
49826;SDS011;35715;51.570;6.036;2022-10-16T10:39:11;6.15;;;1.50;;
49826;SDS011;35715;51.570;6.036;2022-10-16T10:41:52;9.48;;;3.08;;
49826;SDS011;35715;51.570;6.036;2022-10-16T10:44:32;11.00;;;2.53;;
49826;SDS011;35715;51.570;6.036;2022-10-16T10:47:15;2.75;;;1.40;;
49826;SDS011;35715;51.570;6.036;2022-10-16T10:52:34;5.40;;;2.03;;
49826;SDS011;35715;51.570;6.036;2022-10-16T10:55:09;7.55;;;3.10;;
49826;SDS011;35715;51.570;6.036;2022-10-16T11:00:50;5.97;;;2.97;;
49826;SDS011;35715;51.570;6.036;2022-10-16T11:05:46;5.57;;;2.17;;
49826;SDS011;35715;51.570;6.036;2022-10-16T11:08:18;3.78;;;1.90;;
49826;SDS011;35715;51.570;6.036;2022-10-16T11:10:58;4.18;;;1.50;;
49826;SDS011;35715;51.570;6.036;2022-10-16T11:18:52;5.55;;;2.03;;
49826;SDS011;35715;51.570;6.036;2022-10-16T11:21:24;6.57;;;1.65;;
49826;SDS011;35715;51.570;6.036;2022-10-16T11:26:24;3.45;;;1.60;;
49826;SDS011;35715;51.570;6.036;2022-10-16T11:28:55;6.63;;;1.63;;
49826;SDS011;35715;51.570;6.036;2022-10-16T11:34:32;6.97;;;1.95;;
49826;SDS011;35715;51.570;6.036;2022-10-16T11:37:12;7.88;;;2.40;;
49826;SDS011;35715;51.570;6.036;2022-10-16T11:39:43;6.57;;;2.72;;
49826;SDS011;35715;51.570;6.036;2022-10-16T11:42:21;11.27;;;3.28;;
49826;SDS011;35715;51.570;6.036;2022-10-16T11:45:00;11.43;;;5.97;;
49826;SDS011;35715;51.570;6.036;2022-10-16T11:56:00;9.05;;;1.73;;
49826;SDS011;35715;51.570;6.036;2022-10-16T12:06:09;4.95;;;1.58;;
49826;SDS011;35715;51.570;6.036;2022-10-16T12:08:43;8.63;;;1.17;;
49826;SDS011;35715;51.570;6.036;2022-10-16T12:21:36;8.07;;;2.15;;
49826;SDS011;35715;51.570;6.036;2022-10-16T12:24:02;5.03;;;1.33;;
49826;SDS011;35715;51.570;6.036;2022-10-16T12:35:22;5.97;;;2.47;;
49826;SDS011;35715;51.570;6.036;2022-10-16T12:38:22;16.90;;;2.65;;
49826;SDS011;35715;51.570;6.036;2022-10-16T12:41:12;2.10;;;0.68;;
49826;SDS011;35715;51.570;6.036;2022-10-16T12:44:00;6.32;;;1.35;;
49826;SDS011;35715;51.570;6.036;2022-10-16T12:51:39;3.88;;;1.10;;
49826;SDS011;35715;51.570;6.036;2022-10-16T12:54:19;6.20;;;1.75;;
49826;SDS011;35715;51.570;6.036;2022-10-16T13:06:39;6.95;;;1.33;;
49826;SDS011;35715;51.570;6.036;2022-10-16T13:09:19;7.38;;;1.77;;
49826;SDS011;35715;51.570;6.036;2022-10-16T13:17:36;2.70;;;1.23;;
49826;SDS011;35715;51.570;6.036;2022-10-16T13:28:37;2.38;;;1.13;;
49826;SDS011;35715;51.570;6.036;2022-10-16T13:31:11;4.90;;;1.27;;
49826;SDS011;35715;51.570;6.036;2022-10-16T13:33:58;5.47;;;1.63;;
49826;SDS011;35715;51.570;6.036;2022-10-16T13:39:24;5.93;;;1.20;;
49826;SDS011;35715;51.570;6.036;2022-10-16T13:44:25;4.97;;;1.48;;
49826;SDS011;35715;51.570;6.036;2022-10-16T13:46:59;2.67;;;1.05;;
49826;SDS011;35715;51.570;6.036;2022-10-16T13:49:25;8.18;;;1.98;;
49826;SDS011;35715;51.570;6.036;2022-10-16T13:51:55;4.25;;;1.33;;
49826;SDS011;35715;51.570;6.036;2022-10-16T13:54:22;4.10;;;1.23;;
49826;SDS011;35715;51.570;6.036;2022-10-16T13:56:55;5.88;;;1.33;;
49826;SDS011;35715;51.570;6.036;2022-10-16T13:59:42;3.85;;;2.25;;
49826;SDS011;35715;51.570;6.036;2022-10-16T14:02:14;2.10;;;1.35;;
49826;SDS011;35715;51.570;6.036;2022-10-16T14:04:47;3.05;;;1.10;;
49826;SDS011;35715;51.570;6.036;2022-10-16T14:12:22;3.55;;;1.13;;
49826;SDS011;35715;51.570;6.036;2022-10-16T14:14:49;2.30;;;0.98;;
49826;SDS011;35715;51.570;6.036;2022-10-16T14:22:48;5.25;;;2.90;;
49826;SDS011;35715;51.570;6.036;2022-10-16T14:30:23;3.10;;;1.85;;
49826;SDS011;35715;51.570;6.036;2022-10-16T14:32:53;7.93;;;3.80;;
49826;SDS011;35715;51.570;6.036;2022-10-16T14:35:30;7.22;;;3.03;;
49826;SDS011;35715;51.570;6.036;2022-10-16T14:37:56;6.13;;;2.78;;
49826;SDS011;35715;51.570;6.036;2022-10-16T14:40:25;7.45;;;2.80;;
49826;SDS011;35715;51.570;6.036;2022-10-16T14:42:55;3.25;;;1.90;;
49826;SDS011;35715;51.570;6.036;2022-10-16T14:47:58;8.63;;;3.67;;
49826;SDS011;35715;51.570;6.036;2022-10-16T14:53:21;4.40;;;1.80;;
49826;SDS011;35715;51.570;6.036;2022-10-16T15:04:53;11.85;;;2.92;;
49826;SDS011;35715;51.570;6.036;2022-10-16T15:07:25;4.95;;;3.03;;
49826;SDS011;35715;51.570;6.036;2022-10-16T15:09:51;5.20;;;2.88;;
49826;SDS011;35715;51.570;6.036;2022-10-16T15:12:16;6.45;;;2.55;;
49826;SDS011;35715;51.570;6.036;2022-10-16T15:14:47;2.47;;;1.50;;
49826;SDS011;35715;51.570;6.036;2022-10-16T15:17:24;8.02;;;3.33;;
49826;SDS011;35715;51.570;6.036;2022-10-16T15:25:57;5.95;;;1.92;;
49826;SDS011;35715;51.570;6.036;2022-10-16T15:28:23;3.95;;;1.42;;
49826;SDS011;35715;51.570;6.036;2022-10-16T15:30:51;2.00;;;1.20;;
49826;SDS011;35715;51.570;6.036;2022-10-16T15:33:19;4.18;;;0.88;;
49826;SDS011;35715;51.570;6.036;2022-10-16T15:35:49;3.95;;;1.25;;
49826;SDS011;35715;51.570;6.036;2022-10-16T15:38:16;5.53;;;1.20;;
49826;SDS011;35715;51.570;6.036;2022-10-16T15:40:43;3.58;;;1.50;;
49826;SDS011;35715;51.570;6.036;2022-10-16T15:43:09;6.53;;;1.17;;
49826;SDS011;35715;51.570;6.036;2022-10-16T15:45:36;4.40;;;1.60;;
49826;SDS011;35715;51.570;6.036;2022-10-16T15:48:02;4.28;;;1.23;;
49826;SDS011;35715;51.570;6.036;2022-10-16T15:50:27;3.38;;;1.02;;
49826;SDS011;35715;51.570;6.036;2022-10-16T15:52:52;2.33;;;1.02;;
49826;SDS011;35715;51.570;6.036;2022-10-16T15:55:20;2.47;;;1.27;;
49826;SDS011;35715;51.570;6.036;2022-10-16T15:57:45;1.52;;;0.82;;
49826;SDS011;35715;51.570;6.036;2022-10-16T16:00:12;3.75;;;1.58;;
49826;SDS011;35715;51.570;6.036;2022-10-16T16:02:43;2.63;;;1.83;;
49826;SDS011;35715;51.570;6.036;2022-10-16T16:05:17;3.95;;;1.90;;
49826;SDS011;35715;51.570;6.036;2022-10-16T16:07:43;5.10;;;2.10;;
49826;SDS011;35715;51.570;6.036;2022-10-16T16:10:09;2.80;;;1.35;;
49826;SDS011;35715;51.570;6.036;2022-10-16T16:12:36;1.45;;;0.98;;
49826;SDS011;35715;51.570;6.036;2022-10-16T16:15:03;3.70;;;1.40;;
49826;SDS011;35715;51.570;6.036;2022-10-16T16:17:32;5.72;;;1.40;;
49826;SDS011;35715;51.570;6.036;2022-10-16T16:19:57;1.10;;;0.85;;
49826;SDS011;35715;51.570;6.036;2022-10-16T16:22:23;2.00;;;1.15;;
49826;SDS011;35715;51.570;6.036;2022-10-16T16:24:48;4.15;;;0.80;;
49826;SDS011;35715;51.570;6.036;2022-10-16T16:27:14;3.65;;;0.88;;
49826;SDS011;35715;51.570;6.036;2022-10-16T16:29:39;4.80;;;1.33;;
49826;SDS011;35715;51.570;6.036;2022-10-16T16:32:05;2.53;;;1.25;;
49826;SDS011;35715;51.570;6.036;2022-10-16T16:34:30;2.25;;;1.23;;
49826;SDS011;35715;51.570;6.036;2022-10-16T16:36:58;4.00;;;1.67;;
49826;SDS011;35715;51.570;6.036;2022-10-16T16:39:23;5.28;;;1.30;;
49826;SDS011;35715;51.570;6.036;2022-10-16T16:41:49;3.00;;;1.42;;
49826;SDS011;35715;51.570;6.036;2022-10-16T16:44:15;3.65;;;1.17;;
49826;SDS011;35715;51.570;6.036;2022-10-16T16:49:29;4.82;;;1.73;;
49826;SDS011;35715;51.570;6.036;2022-10-16T16:51:54;2.00;;;1.40;;
49826;SDS011;35715;51.570;6.036;2022-10-16T16:54:20;2.97;;;1.20;;
49826;SDS011;35715;51.570;6.036;2022-10-16T16:59:39;5.82;;;1.65;;
49826;SDS011;35715;51.570;6.036;2022-10-16T17:02:08;2.72;;;1.77;;
49826;SDS011;35715;51.570;6.036;2022-10-16T17:04:33;1.80;;;1.33;;
49826;SDS011;35715;51.570;6.036;2022-10-16T17:09:28;3.10;;;1.47;;
49826;SDS011;35715;51.570;6.036;2022-10-16T17:11:57;1.85;;;1.10;;
49826;SDS011;35715;51.570;6.036;2022-10-16T17:14:22;4.82;;;2.20;;
49826;SDS011;35715;51.570;6.036;2022-10-16T17:16:48;6.45;;;1.70;;
49826;SDS011;35715;51.570;6.036;2022-10-16T17:19:16;4.35;;;1.83;;
49826;SDS011;35715;51.570;6.036;2022-10-16T17:21:43;2.63;;;1.52;;
49826;SDS011;35715;51.570;6.036;2022-10-16T17:24:09;2.38;;;1.23;;
49826;SDS011;35715;51.570;6.036;2022-10-16T17:26:35;6.40;;;1.60;;
49826;SDS011;35715;51.570;6.036;2022-10-16T17:29:02;5.60;;;1.92;;
49826;SDS011;35715;51.570;6.036;2022-10-16T17:31:30;3.80;;;1.38;;
49826;SDS011;35715;51.570;6.036;2022-10-16T17:33:57;4.72;;;1.73;;
49826;SDS011;35715;51.570;6.036;2022-10-16T17:36:29;4.72;;;1.48;;
49826;SDS011;35715;51.570;6.036;2022-10-16T17:38:57;1.98;;;1.10;;
49826;SDS011;35715;51.570;6.036;2022-10-16T17:41:25;6.82;;;1.98;;
49826;SDS011;35715;51.570;6.036;2022-10-16T17:43:51;2.45;;;1.55;;
49826;SDS011;35715;51.570;6.036;2022-10-16T17:46:19;2.15;;;1.40;;
49826;SDS011;35715;51.570;6.036;2022-10-16T17:48:46;4.72;;;1.58;;
49826;SDS011;35715;51.570;6.036;2022-10-16T17:51:15;4.47;;;1.85;;
49826;SDS011;35715;51.570;6.036;2022-10-16T17:53:41;16.08;;;2.78;;
49826;SDS011;35715;51.570;6.036;2022-10-16T17:56:11;5.30;;;1.80;;
49826;SDS011;35715;51.570;6.036;2022-10-16T17:58:37;6.75;;;2.20;;
49826;SDS011;35715;51.570;6.036;2022-10-16T18:01:12;7.43;;;2.45;;
49826;SDS011;35715;51.570;6.036;2022-10-16T18:03:41;6.28;;;2.35;;
49826;SDS011;35715;51.570;6.036;2022-10-16T18:06:08;7.75;;;3.83;;
49826;SDS011;35715;51.570;6.036;2022-10-16T18:08:35;4.68;;;2.03;;
49826;SDS011;35715;51.570;6.036;2022-10-16T18:11:02;3.45;;;1.80;;
49826;SDS011;35715;51.570;6.036;2022-10-16T18:13:28;8.48;;;2.40;;
49826;SDS011;35715;51.570;6.036;2022-10-16T18:16:06;4.22;;;2.25;;
49826;SDS011;35715;51.570;6.036;2022-10-16T18:18:34;3.83;;;2.47;;
49826;SDS011;35715;51.570;6.036;2022-10-16T18:21:00;8.95;;;3.05;;
49826;SDS011;35715;51.570;6.036;2022-10-16T18:23:27;4.60;;;2.40;;
49826;SDS011;35715;51.570;6.036;2022-10-16T18:25:53;8.20;;;2.92;;
49826;SDS011;35715;51.570;6.036;2022-10-16T18:28:18;2.80;;;2.00;;
49826;SDS011;35715;51.570;6.036;2022-10-16T18:30:44;3.70;;;2.05;;
49826;SDS011;35715;51.570;6.036;2022-10-16T18:33:10;4.88;;;1.63;;
49826;SDS011;35715;51.570;6.036;2022-10-16T18:38:04;6.78;;;2.10;;
49826;SDS011;35715;51.570;6.036;2022-10-16T18:40:30;4.28;;;1.63;;
49826;SDS011;35715;51.570;6.036;2022-10-16T18:42:55;7.55;;;2.47;;
49826;SDS011;35715;51.570;6.036;2022-10-16T18:45:34;19.90;;;3.40;;
49826;SDS011;35715;51.570;6.036;2022-10-16T18:47:59;6.82;;;2.47;;
49826;SDS011;35715;51.570;6.036;2022-10-16T18:50:24;6.55;;;2.65;;
49826;SDS011;35715;51.570;6.036;2022-10-16T18:52:50;9.00;;;2.63;;
49826;SDS011;35715;51.570;6.036;2022-10-16T18:57:50;9.10;;;4.32;;
49826;SDS011;35715;51.570;6.036;2022-10-16T19:00:15;6.72;;;2.72;;
49826;SDS011;35715;51.570;6.036;2022-10-16T19:02:41;5.88;;;3.25;;
49826;SDS011;35715;51.570;6.036;2022-10-16T19:05:09;6.22;;;2.97;;
49826;SDS011;35715;51.570;6.036;2022-10-16T19:07:35;5.05;;;3.63;;
49826;SDS011;35715;51.570;6.036;2022-10-16T19:10:00;8.77;;;3.55;;
49826;SDS011;35715;51.570;6.036;2022-10-16T19:12:25;8.20;;;3.33;;
49826;SDS011;35715;51.570;6.036;2022-10-16T19:14:51;6.60;;;3.55;;
49826;SDS011;35715;51.570;6.036;2022-10-16T19:17:24;11.40;;;3.80;;
49826;SDS011;35715;51.570;6.036;2022-10-16T19:19:49;8.52;;;2.90;;
49826;SDS011;35715;51.570;6.036;2022-10-16T19:22:15;9.40;;;3.28;;
49826;SDS011;35715;51.570;6.036;2022-10-16T19:24:54;5.15;;;2.75;;
49826;SDS011;35715;51.570;6.036;2022-10-16T19:27:34;3.88;;;2.10;;
49826;SDS011;35715;51.570;6.036;2022-10-16T19:29:59;5.00;;;2.58;;
49826;SDS011;35715;51.570;6.036;2022-10-16T19:32:25;12.85;;;3.08;;
49826;SDS011;35715;51.570;6.036;2022-10-16T19:34:51;6.18;;;2.45;;
49826;SDS011;35715;51.570;6.036;2022-10-16T19:37:17;13.18;;;2.65;;
49826;SDS011;35715;51.570;6.036;2022-10-16T19:39:42;6.53;;;3.13;;
49826;SDS011;35715;51.570;6.036;2022-10-16T19:42:08;7.90;;;2.88;;
49826;SDS011;35715;51.570;6.036;2022-10-16T19:44:35;4.15;;;2.53;;
49826;SDS011;35715;51.570;6.036;2022-10-16T19:47:02;5.68;;;2.67;;
49826;SDS011;35715;51.570;6.036;2022-10-16T19:49:27;6.20;;;3.20;;
49826;SDS011;35715;51.570;6.036;2022-10-16T19:51:53;4.75;;;2.78;;
49826;SDS011;35715;51.570;6.036;2022-10-16T19:54:18;5.53;;;2.40;;
49826;SDS011;35715;51.570;6.036;2022-10-16T19:56:46;9.63;;;3.42;;
49826;SDS011;35715;51.570;6.036;2022-10-16T19:59:12;4.47;;;2.90;;
49826;SDS011;35715;51.570;6.036;2022-10-16T20:01:40;5.15;;;2.83;;
49826;SDS011;35715;51.570;6.036;2022-10-16T20:04:05;8.30;;;3.10;;
49826;SDS011;35715;51.570;6.036;2022-10-16T20:06:35;6.32;;;3.25;;
49826;SDS011;35715;51.570;6.036;2022-10-16T20:09:01;13.02;;;3.97;;
49826;SDS011;35715;51.570;6.036;2022-10-16T20:11:28;7.93;;;2.65;;
49826;SDS011;35715;51.570;6.036;2022-10-16T20:13:55;6.55;;;2.67;;
49826;SDS011;35715;51.570;6.036;2022-10-16T20:16:23;6.15;;;3.20;;
49826;SDS011;35715;51.570;6.036;2022-10-16T20:18:49;4.50;;;2.42;;
49826;SDS011;35715;51.570;6.036;2022-10-16T20:21:19;3.58;;;2.47;;
49826;SDS011;35715;51.570;6.036;2022-10-16T20:23:49;4.97;;;3.08;;
49826;SDS011;35715;51.570;6.036;2022-10-16T20:26:15;4.93;;;2.78;;
49826;SDS011;35715;51.570;6.036;2022-10-16T20:28:42;3.97;;;2.33;;
49826;SDS011;35715;51.570;6.036;2022-10-16T20:31:08;4.95;;;3.33;;
49826;SDS011;35715;51.570;6.036;2022-10-16T20:33:36;3.67;;;2.92;;
49826;SDS011;35715;51.570;6.036;2022-10-16T20:36:11;3.85;;;3.47;;
49826;SDS011;35715;51.570;6.036;2022-10-16T20:38:37;3.83;;;3.50;;
49826;SDS011;35715;51.570;6.036;2022-10-16T20:41:03;5.28;;;3.42;;
49826;SDS011;35715;51.570;6.036;2022-10-16T20:43:29;6.80;;;2.80;;
49826;SDS011;35715;51.570;6.036;2022-10-16T20:45:59;6.75;;;3.80;;
49826;SDS011;35715;51.570;6.036;2022-10-16T20:48:26;17.05;;;3.95;;
49826;SDS011;35715;51.570;6.036;2022-10-16T20:50:51;3.30;;;2.95;;
49826;SDS011;35715;51.570;6.036;2022-10-16T20:53:17;3.88;;;3.25;;
49826;SDS011;35715;51.570;6.036;2022-10-16T20:55:43;4.32;;;3.28;;
49826;SDS011;35715;51.570;6.036;2022-10-16T20:58:09;6.07;;;4.65;;
49826;SDS011;35715;51.570;6.036;2022-10-16T21:00:34;4.50;;;4.10;;
49826;SDS011;35715;51.570;6.036;2022-10-16T21:02:59;3.63;;;2.92;;
49826;SDS011;35715;51.570;6.036;2022-10-16T21:05:28;4.68;;;3.03;;
49826;SDS011;35715;51.570;6.036;2022-10-16T21:07:56;5.97;;;3.30;;
49826;SDS011;35715;51.570;6.036;2022-10-16T21:10:21;4.00;;;3.55;;
49826;SDS011;35715;51.570;6.036;2022-10-16T21:12:47;7.70;;;4.53;;
49826;SDS011;35715;51.570;6.036;2022-10-16T21:15:12;11.45;;;4.65;;
49826;SDS011;35715;51.570;6.036;2022-10-16T21:17:38;5.78;;;4.63;;
49826;SDS011;35715;51.570;6.036;2022-10-16T21:20:03;6.18;;;3.83;;
49826;SDS011;35715;51.570;6.036;2022-10-16T21:22:29;10.00;;;5.55;;
49826;SDS011;35715;51.570;6.036;2022-10-16T21:24:55;6.95;;;4.75;;
49826;SDS011;35715;51.570;6.036;2022-10-16T21:27:21;8.18;;;5.18;;
49826;SDS011;35715;51.570;6.036;2022-10-16T21:29:46;6.03;;;4.93;;
49826;SDS011;35715;51.570;6.036;2022-10-16T21:32:11;7.50;;;5.10;;
49826;SDS011;35715;51.570;6.036;2022-10-16T21:34:37;5.57;;;4.90;;
49826;SDS011;35715;51.570;6.036;2022-10-16T21:37:09;6.82;;;5.55;;
49826;SDS011;35715;51.570;6.036;2022-10-16T21:39:34;7.40;;;5.03;;
49826;SDS011;35715;51.570;6.036;2022-10-16T21:42:00;14.00;;;6.53;;
49826;SDS011;35715;51.570;6.036;2022-10-16T21:44:25;9.93;;;6.05;;
49826;SDS011;35715;51.570;6.036;2022-10-16T21:47:06;6.75;;;5.47;;
49826;SDS011;35715;51.570;6.036;2022-10-16T21:49:31;6.78;;;5.68;;
49826;SDS011;35715;51.570;6.036;2022-10-16T21:51:56;9.30;;;5.10;;
49826;SDS011;35715;51.570;6.036;2022-10-16T21:54:24;7.57;;;4.72;;
49826;SDS011;35715;51.570;6.036;2022-10-16T21:57:01;7.63;;;5.95;;
49826;SDS011;35715;51.570;6.036;2022-10-16T21:59:26;8.23;;;6.15;;
49826;SDS011;35715;51.570;6.036;2022-10-16T22:01:52;7.47;;;5.95;;
49826;SDS011;35715;51.570;6.036;2022-10-16T22:04:18;6.88;;;6.10;;
49826;SDS011;35715;51.570;6.036;2022-10-16T22:06:52;5.57;;;4.88;;
49826;SDS011;35715;51.570;6.036;2022-10-16T22:09:17;12.20;;;6.07;;
49826;SDS011;35715;51.570;6.036;2022-10-16T22:11:43;7.55;;;5.82;;
49826;SDS011;35715;51.570;6.036;2022-10-16T22:14:11;6.20;;;5.60;;
49826;SDS011;35715;51.570;6.036;2022-10-16T22:19:35;9.50;;;6.32;;